Terminal Aerodrome Forecast
Issued by NWS

Home | Current Version | Previous Version | Text Only | Print | Product List | Glossary On
Versions: 1 2 3 4 5 6 7 8 9 10 11 12 13 14 15 16 17 18 19 20 21 22 23 24 25 26 27 28 29 30 31 32 33 34 35 36 37 38 39 40 41 42
000
FTUS41 KBTV 271130
TAFPBG
TAF
KPBG 271130Z 2712/2812 16013KT P6SM -SHRA OVC035
     FM271300 16012KT 6SM -RA BR OVC030
     FM271900 15006KT P6SM VCSH OVC030
     FM280000 15004KT P6SM OVC025
     FM280500 00000KT 4SM BR OVC008
     FM281100 00000KT P6SM VCSH OVC020=

USA.gov is the U.S. government's official web portal to all federal, state and local government web resources and services.